createdAt,value
2017-10-31T00:00:06.495Z,81.92
2017-10-31T00:02:33.907Z,82.17
2017-10-31T00:05:01.302Z,81.16
2017-10-31T00:07:28.714Z,81.58
2017-10-31T00:09:56.150Z,81.27
2017-10-31T00:12:23.575Z,81.12
2017-10-31T00:14:50.963Z,80.72
2017-10-31T00:17:18.343Z,80.62
2017-10-31T00:19:45.742Z,80.32
2017-10-31T00:22:13.197Z,79.50
2017-10-31T00:24:40.591Z,80.10
2017-10-31T00:27:07.970Z,80.36
2017-10-31T00:29:35.362Z,80.65
2017-10-31T00:32:02.819Z,80.50
2017-10-31T00:34:30.210Z,81.05
2017-10-31T00:36:57.624Z,82.10
2017-10-31T00:39:25.087Z,82.03
2017-10-31T00:41:52.471Z,81.25
2017-10-31T00:44:19.859Z,81.24
2017-10-31T00:46:47.251Z,81.01
2017-10-31T00:49:14.708Z,81.31
2017-10-31T00:51:42.093Z,80.89
2017-10-31T00:54:09.482Z,81.03
2017-10-31T00:56:36.967Z,81.41
2017-10-31T00:59:04.428Z,81.10
2017-10-31T01:01:31.806Z,81.12
2017-10-31T01:03:59.186Z,80.87
2017-10-31T01:06:26.579Z,81.77
2017-10-31T01:08:54.051Z,80.92
2017-10-31T01:11:21.444Z,80.54
2017-10-31T01:13:48.824Z,81.21
2017-10-31T01:16:16.319Z,81.32
2017-10-31T01:18:43.767Z,80.99
2017-10-31T01:21:11.224Z,82.13
2017-10-31T01:23:38.602Z,81.51
2017-10-31T01:26:05.992Z,81.95
2017-10-31T01:28:33.387Z,82.06
2017-10-31T01:31:00.785Z,83.02
2017-10-31T01:33:28.185Z,82.68
2017-10-31T01:35:55.564Z,82.54
2017-10-31T01:38:23.021Z,82.33
2017-10-31T01:40:50.410Z,82.86
2017-10-31T01:43:17.831Z,82.25
2017-10-31T01:45:45.287Z,81.86
2017-10-31T01:48:12.679Z,81.51
2017-10-31T01:50:40.060Z,81.80
2017-10-31T01:53:07.542Z,81.12
2017-10-31T01:55:35.012Z,81.86
2017-10-31T01:58:02.407Z,81.74
2017-10-31T02:00:29.787Z,81.61
2017-10-31T02:02:57.171Z,81.24
2017-10-31T02:05:24.627Z,82.16
2017-10-31T02:07:52.089Z,82.40
2017-10-31T02:10:19.485Z,81.83
2017-10-31T02:12:46.887Z,81.43
2017-10-31T02:15:14.270Z,81.48
2017-10-31T02:17:41.702Z,81.98
2017-10-31T02:20:09.079Z,82.01
2017-10-31T02:22:36.514Z,82.06
2017-10-31T02:25:03.970Z,81.89
2017-10-31T02:27:31.424Z,81.96
2017-10-31T02:29:58.809Z,82.30
2017-10-31T02:32:26.191Z,82.34
2017-10-31T02:34:53.595Z,82.63
2017-10-31T02:37:20.975Z,83.10
2017-10-31T02:39:48.392Z,83.56
2017-10-31T02:42:15.854Z,83.07
2017-10-31T02:44:43.314Z,83.23
2017-10-31T02:47:10.775Z,82.42
2017-10-31T02:49:38.221Z,82.70
2017-10-31T02:52:05.606Z,82.53
2017-10-31T02:54:33.003Z,83.32
2017-10-31T02:57:00.378Z,83.06
2017-10-31T02:59:27.767Z,83.35
2017-10-31T03:01:55.142Z,83.92
2017-10-31T03:04:22.538Z,83.79
2017-10-31T03:06:50.014Z,83.91
2017-10-31T03:09:17.470Z,83.85
2017-10-31T03:11:44.847Z,83.40
2017-10-31T03:14:12.231Z,83.47
2017-10-31T03:16:39.634Z,83.56
2017-10-31T03:19:07.085Z,83.67
2017-10-31T03:21:34.471Z,84.03
2017-10-31T03:24:01.906Z,83.55
2017-10-31T03:26:29.362Z,83.34
2017-10-31T03:28:56.827Z,83.55
2017-10-31T03:31:24.211Z,82.97
2017-10-31T03:33:51.633Z,83.22
2017-10-31T03:36:19.010Z,83.07
2017-10-31T03:38:46.389Z,83.18
2017-10-31T03:41:13.786Z,83.70
2017-10-31T03:43:41.186Z,83.51
2017-10-31T03:46:08.566Z,83.45
2017-10-31T03:48:36.060Z,83.91
2017-10-31T03:51:03.447Z,83.24
2017-10-31T03:53:30.833Z,83.86
2017-10-31T03:55:58.218Z,83.16
2017-10-31T03:58:25.674Z,82.50
2017-10-31T04:00:53.130Z,82.92
2017-10-31T04:03:20.514Z,83.26
2017-10-31T04:05:47.969Z,83.21
2017-10-31T04:08:15.407Z,84.02
2017-10-31T04:10:42.868Z,83.91
2017-10-31T04:13:10.276Z,84.30
2017-10-31T04:15:37.670Z,84.96
2017-10-31T04:18:05.055Z,84.94
2017-10-31T04:20:32.487Z,84.74
2017-10-31T04:22:59.939Z,84.63
2017-10-31T04:25:27.327Z,84.09
2017-10-31T04:27:54.714Z,83.84
2017-10-31T04:30:22.202Z,82.71
2017-10-31T04:32:49.590Z,83.26
2017-10-31T04:35:17.004Z,82.64
2017-10-31T04:37:44.384Z,82.70
2017-10-31T04:40:11.841Z,82.86
2017-10-31T04:42:39.223Z,82.88
2017-10-31T04:45:06.605Z,82.68
2017-10-31T04:47:34.036Z,82.80
2017-10-31T04:50:01.422Z,83.56
2017-10-31T04:52:28.816Z,84.28
2017-10-31T04:54:56.259Z,85.07
2017-10-31T04:57:23.707Z,84.96
2017-10-31T04:59:51.092Z,85.11
2017-10-31T05:02:18.523Z,83.98
2017-10-31T05:04:45.909Z,83.32
2017-10-31T05:07:13.294Z,82.88
2017-10-31T05:09:40.675Z,83.25
2017-10-31T05:12:08.063Z,83.26
2017-10-31T05:14:35.490Z,83.18
2017-10-31T05:17:02.888Z,84.14
2017-10-31T05:19:30.276Z,83.92
2017-10-31T05:21:57.662Z,83.42
2017-10-31T05:24:25.122Z,83.83
2017-10-31T05:26:52.575Z,83.41
2017-10-31T05:29:19.964Z,83.79
2017-10-31T05:31:47.388Z,83.82
2017-10-31T05:34:14.776Z,83.94
2017-10-31T05:36:42.196Z,84.64
2017-10-31T05:39:09.651Z,84.45
2017-10-31T05:41:37.114Z,84.43
2017-10-31T05:44:04.497Z,84.27
2017-10-31T05:46:31.884Z,84.94
2017-10-31T05:48:59.272Z,84.45
2017-10-31T05:51:26.646Z,83.65
2017-10-31T05:53:54.044Z,82.86
2017-10-31T05:56:21.435Z,82.54
2017-10-31T05:58:48.835Z,83.52
2017-10-31T06:01:16.215Z,83.92
2017-10-31T06:03:43.702Z,84.13
2017-10-31T06:06:11.083Z,83.92
2017-10-31T06:08:38.469Z,83.81
2017-10-31T06:11:05.875Z,83.65
2017-10-31T06:13:33.259Z,83.31
2017-10-31T06:16:00.646Z,82.70
2017-10-31T06:18:28.029Z,83.45
2017-10-31T06:20:55.484Z,83.31
2017-10-31T06:23:28.370Z,82.49
2017-10-31T06:26:01.357Z,82.27
2017-10-31T06:28:34.247Z,82.76
2017-10-31T06:31:07.207Z,82.78
2017-10-31T06:33:34.694Z,82.20
2017-10-31T06:36:02.075Z,82.62
2017-10-31T06:38:29.623Z,82.74
2017-10-31T06:40:57.054Z,82.99
2017-10-31T06:43:24.431Z,82.16
2017-10-31T06:45:51.867Z,83.38
2017-10-31T06:48:19.318Z,83.05
2017-10-31T06:50:46.774Z,82.92
2017-10-31T06:53:14.253Z,83.21
2017-10-31T06:55:41.643Z,83.96
2017-10-31T06:58:09.022Z,84.45
2017-10-31T07:00:36.418Z,84.67
2017-10-31T07:03:03.807Z,84.33
2017-10-31T07:05:31.537Z,84.82
2017-10-31T07:07:58.922Z,83.82
2017-10-31T07:10:26.306Z,83.59
2017-10-31T07:12:53.686Z,82.80
2017-10-31T07:15:21.086Z,81.72
2017-10-31T07:17:48.478Z,80.54
2017-10-31T07:20:15.869Z,79.65
2017-10-31T07:22:43.251Z,79.63
2017-10-31T07:25:10.660Z,78.98
2017-10-31T07:27:38.119Z,77.97
2017-10-31T07:30:05.582Z,76.85
2017-10-31T07:32:32.975Z,76.42
2017-10-31T07:35:00.382Z,74.75
2017-10-31T07:37:27.859Z,71.36
2017-10-31T07:39:55.319Z,69.08
2017-10-31T07:42:22.750Z,67.95
2017-10-31T07:44:50.208Z,68.90
2017-10-31T07:47:17.608Z,65.81
2017-10-31T07:49:45.000Z,64.58
2017-10-31T07:52:12.474Z,61.34
2017-10-31T07:54:39.858Z,64.35
2017-10-31T07:57:07.291Z,64.84
2017-10-31T07:59:34.675Z,64.97
2017-10-31T08:02:02.115Z,66.00
2017-10-31T08:04:29.501Z,66.95
2017-10-31T08:06:56.911Z,67.89
2017-10-31T08:09:24.300Z,68.77
2017-10-31T08:11:51.735Z,70.56
2017-10-31T08:14:19.104Z,72.46
2017-10-31T08:16:46.504Z,73.67
2017-10-31T08:19:13.987Z,73.99
2017-10-31T08:21:41.375Z,73.73
2017-10-31T08:24:08.803Z,73.88
2017-10-31T08:26:36.210Z,74.88
2017-10-31T08:29:03.651Z,75.91
2017-10-31T08:31:31.060Z,76.07
2017-10-31T08:33:58.423Z,75.24
2017-10-31T08:36:25.882Z,74.85
2017-10-31T08:38:53.297Z,74.23
2017-10-31T08:41:20.706Z,73.88
2017-10-31T08:43:48.094Z,72.49
2017-10-31T08:46:15.523Z,69.64
2017-10-31T08:48:42.954Z,67.46
2017-10-31T08:51:10.438Z,65.55
2017-10-31T08:53:37.871Z,64.17
2017-10-31T08:56:05.257Z,63.70
2017-10-31T08:58:32.703Z,63.94
2017-10-31T09:01:00.099Z,64.81
2017-10-31T09:03:27.582Z,63.34
2017-10-31T09:05:54.995Z,61.17
2017-10-31T09:08:22.383Z,59.98
2017-10-31T09:10:49.854Z,58.24
2017-10-31T09:13:17.254Z,57.53
2017-10-31T09:15:44.675Z,61.00
2017-10-31T09:18:12.082Z,62.54
2017-10-31T09:20:39.487Z,62.64
2017-10-31T09:23:06.913Z,61.83
2017-10-31T09:25:34.294Z,62.09
2017-10-31T09:28:01.754Z,62.83
2017-10-31T09:30:29.135Z,63.30
2017-10-31T09:32:56.563Z,62.49
2017-10-31T09:35:24.018Z,61.66
2017-10-31T09:37:51.406Z,62.61
2017-10-31T09:40:18.811Z,62.98
2017-10-31T09:42:46.291Z,64.53
2017-10-31T09:45:13.927Z,65.63
2017-10-31T09:47:41.351Z,64.98
2017-10-31T09:50:08.738Z,64.67
2017-10-31T09:52:36.123Z,65.47
2017-10-31T09:55:03.510Z,66.12
2017-10-31T09:57:30.935Z,68.13
2017-10-31T09:59:58.327Z,69.04
2017-10-31T10:02:25.718Z,69.87
2017-10-31T10:04:54.119Z,70.40
2017-10-31T10:07:21.689Z,71.41
2017-10-31T10:09:49.126Z,71.71
2017-10-31T10:12:16.515Z,71.81
2017-10-31T10:14:43.927Z,71.18
2017-10-31T10:17:11.366Z,71.81
2017-10-31T10:19:38.854Z,71.19
2017-10-31T10:22:06.260Z,71.17
2017-10-31T10:24:33.647Z,71.84
2017-10-31T10:27:01.045Z,72.79
2017-10-31T10:29:28.428Z,73.13
2017-10-31T10:31:55.825Z,73.31
2017-10-31T10:34:23.235Z,72.72
2017-10-31T10:36:50.627Z,73.10
2017-10-31T10:39:18.024Z,73.00
2017-10-31T10:41:45.500Z,73.70
2017-10-31T10:44:12.891Z,74.48
2017-10-31T10:46:40.285Z,75.07
2017-10-31T10:49:07.787Z,74.87
2017-10-31T10:51:35.178Z,75.74
2017-10-31T10:54:02.656Z,76.23
2017-10-31T10:56:30.054Z,76.68
2017-10-31T10:58:57.497Z,76.74
2017-10-31T11:01:24.900Z,76.60
2017-10-31T11:03:52.278Z,76.12
2017-10-31T11:06:19.677Z,75.05
2017-10-31T11:08:47.090Z,74.73
2017-10-31T11:11:14.471Z,73.70
2017-10-31T11:13:41.866Z,73.98
2017-10-31T11:16:09.251Z,73.39
2017-10-31T11:18:36.646Z,72.99
2017-10-31T11:21:04.026Z,71.88
2017-10-31T11:23:31.456Z,72.41
2017-10-31T11:25:58.903Z,72.14
2017-10-31T11:28:26.355Z,71.81
2017-10-31T11:30:53.742Z,71.59
2017-10-31T11:33:21.192Z,71.67
2017-10-31T11:35:48.630Z,71.42
2017-10-31T11:38:16.023Z,71.88
2017-10-31T11:40:43.407Z,70.76
2017-10-31T11:43:10.912Z,69.84
2017-10-31T11:45:38.349Z,70.12
2017-10-31T11:48:05.755Z,70.25
2017-10-31T11:50:33.158Z,70.15
2017-10-31T11:53:00.546Z,70.08
2017-10-31T11:55:27.948Z,70.23
2017-10-31T11:57:55.345Z,70.58
2017-10-31T12:00:22.745Z,70.69
2017-10-31T12:02:50.264Z,70.66
2017-10-31T12:05:17.759Z,70.61
2017-10-31T12:07:45.216Z,70.16
2017-10-31T12:10:12.604Z,70.46
2017-10-31T12:12:39.992Z,70.63
2017-10-31T12:15:07.378Z,71.50
2017-10-31T12:17:34.771Z,71.28
2017-10-31T12:20:02.167Z,71.47
2017-10-31T12:22:29.656Z,71.42
2017-10-31T12:24:57.143Z,70.90
2017-10-31T12:27:24.559Z,70.82
2017-10-31T12:29:52.019Z,70.40
2017-10-31T12:32:19.407Z,70.91
2017-10-31T12:34:46.821Z,70.57
2017-10-31T12:37:14.297Z,70.34
2017-10-31T12:39:41.684Z,70.23
2017-10-31T12:42:09.078Z,71.04
2017-10-31T12:44:36.547Z,70.78
2017-10-31T12:47:03.946Z,70.46
2017-10-31T12:49:31.358Z,70.80
2017-10-31T12:51:58.823Z,71.75
2017-10-31T12:54:26.214Z,70.80
2017-10-31T12:56:53.607Z,70.90
2017-10-31T12:59:21.004Z,72.01
2017-10-31T13:01:48.449Z,72.14
2017-10-31T13:04:15.843Z,71.26
2017-10-31T13:06:43.230Z,70.42
2017-10-31T13:09:10.698Z,70.80
2017-10-31T13:11:38.090Z,69.81
2017-10-31T13:14:05.522Z,70.05
2017-10-31T13:16:32.981Z,69.67
2017-10-31T13:19:00.435Z,69.01
2017-10-31T13:21:27.838Z,69.16
2017-10-31T13:23:55.246Z,69.12
2017-10-31T13:26:22.851Z,69.69
2017-10-31T13:28:51.341Z,69.05
2017-10-31T13:31:18.979Z,68.82
2017-10-31T13:33:47.423Z,68.46
2017-10-31T13:36:15.118Z,68.44
2017-10-31T13:38:42.747Z,68.37
2017-10-31T13:41:10.476Z,68.83
2017-10-31T13:43:38.675Z,70.02
2017-10-31T13:46:06.142Z,70.85
2017-10-31T13:48:33.679Z,70.32
2017-10-31T13:51:01.167Z,70.58
2017-10-31T13:53:28.734Z,70.62
2017-10-31T13:55:56.173Z,70.02
2017-10-31T13:58:23.540Z,69.86
2017-10-31T14:00:51.143Z,71.06
2017-10-31T14:03:18.661Z,71.08
2017-10-31T14:05:46.174Z,70.92
2017-10-31T14:08:13.687Z,71.06
2017-10-31T14:10:41.175Z,71.73
2017-10-31T14:13:08.566Z,71.43
2017-10-31T14:15:36.055Z,72.13
2017-10-31T14:18:03.592Z,72.02
2017-10-31T14:20:31.099Z,72.09
2017-10-31T14:22:58.491Z,71.87
2017-10-31T14:25:25.880Z,72.01
2017-10-31T14:27:53.275Z,72.47
2017-10-31T14:30:20.775Z,72.29
2017-10-31T14:32:48.190Z,72.92
2017-10-31T14:35:15.709Z,73.40
2017-10-31T14:37:43.092Z,73.45
2017-10-31T14:40:10.494Z,73.57
2017-10-31T14:42:37.899Z,73.30
2017-10-31T14:45:05.314Z,73.36
2017-10-31T14:47:32.770Z,73.39
2017-10-31T14:50:00.231Z,73.60
2017-10-31T14:52:27.691Z,73.92
2017-10-31T14:54:55.140Z,73.84
2017-10-31T14:57:22.603Z,73.24
2017-10-31T14:59:50.015Z,73.18
2017-10-31T15:02:17.456Z,73.51
2017-10-31T15:04:44.870Z,73.85
2017-10-31T15:07:12.322Z,74.07
2017-10-31T15:09:39.710Z,73.54
2017-10-31T15:12:07.150Z,74.90
2017-10-31T15:14:34.577Z,74.91
2017-10-31T15:17:02.047Z,75.04
2017-10-31T15:19:29.519Z,74.95
2017-10-31T15:21:56.916Z,74.44
2017-10-31T15:24:24.315Z,75.09
2017-10-31T15:26:51.775Z,74.71
2017-10-31T15:29:19.173Z,75.00
2017-10-31T15:31:46.563Z,75.52
2017-10-31T15:34:13.966Z,75.35
2017-10-31T15:36:41.355Z,75.51
2017-10-31T15:39:08.762Z,76.26
2017-10-31T15:41:36.150Z,76.37
2017-10-31T15:44:03.559Z,75.67
2017-10-31T15:46:30.962Z,76.13
2017-10-31T15:48:58.412Z,76.06
2017-10-31T15:51:25.874Z,75.67
2017-10-31T15:53:53.285Z,75.36
2017-10-31T15:56:20.691Z,75.56
2017-10-31T15:58:48.098Z,75.98
2017-10-31T16:01:15.637Z,76.13
2017-10-31T16:03:43.049Z,75.87
2017-10-31T16:06:10.448Z,75.62
2017-10-31T16:08:37.871Z,76.47
2017-10-31T16:11:05.258Z,77.02
2017-10-31T16:13:32.662Z,77.14
2017-10-31T16:16:00.134Z,76.99
2017-10-31T16:18:27.527Z,77.34
2017-10-31T16:20:54.918Z,76.99
2017-10-31T16:23:22.450Z,77.19
2017-10-31T16:25:50.850Z,77.68
2017-10-31T16:28:18.327Z,78.06
2017-10-31T16:30:45.722Z,78.14
2017-10-31T16:33:13.126Z,77.59
2017-10-31T16:35:40.563Z,77.48
2017-10-31T16:38:07.967Z,77.64
2017-10-31T16:40:35.365Z,77.20
2017-10-31T16:43:02.794Z,77.58
2017-10-31T16:45:30.215Z,77.54
2017-10-31T16:47:57.610Z,77.03
2017-10-31T16:50:25.100Z,76.72
2017-10-31T16:52:52.494Z,76.37
2017-10-31T16:55:19.894Z,76.97
2017-10-31T16:57:47.286Z,77.17
2017-10-31T17:00:14.688Z,77.00
2017-10-31T17:02:42.082Z,76.34
2017-10-31T17:05:09.535Z,76.95
2017-10-31T17:07:36.904Z,76.32
2017-10-31T17:10:04.305Z,76.29
2017-10-31T17:12:31.716Z,76.89
2017-10-31T17:14:59.155Z,76.82
2017-10-31T17:17:26.615Z,77.40
2017-10-31T17:19:54.086Z,77.88
2017-10-31T17:22:21.467Z,77.95
2017-10-31T17:24:48.882Z,77.49
2017-10-31T17:27:16.278Z,77.44
2017-10-31T17:29:43.667Z,77.20
2017-10-31T17:32:11.076Z,77.05
2017-10-31T17:34:38.496Z,77.72
2017-10-31T17:37:05.899Z,78.15
2017-10-31T17:39:33.316Z,77.95
2017-10-31T17:42:00.722Z,78.31
2017-10-31T17:44:28.134Z,78.38
2017-10-31T17:46:55.535Z,77.85
2017-10-31T17:49:23.048Z,78.07
2017-10-31T17:51:50.499Z,77.31
2017-10-31T17:54:17.959Z,77.34
2017-10-31T17:56:45.355Z,77.00
2017-10-31T17:59:12.771Z,78.02
2017-10-31T18:01:40.218Z,79.41
2017-10-31T18:04:07.692Z,79.38
2017-10-31T18:06:35.130Z,79.62
2017-10-31T18:09:02.530Z,79.78
2017-10-31T18:11:29.938Z,79.71
2017-10-31T18:13:57.328Z,79.79
2017-10-31T18:16:24.758Z,80.16
2017-10-31T18:18:52.219Z,80.12
2017-10-31T18:21:19.623Z,79.72
2017-10-31T18:23:47.122Z,79.79
2017-10-31T18:26:14.591Z,79.42
2017-10-31T18:28:41.983Z,79.17
2017-10-31T18:31:09.381Z,78.97
2017-10-31T18:33:36.851Z,78.70
2017-10-31T18:36:04.527Z,79.24
2017-10-31T18:38:31.910Z,78.81
2017-10-31T18:40:59.307Z,78.81
2017-10-31T18:43:26.703Z,79.10
2017-10-31T18:45:54.224Z,79.44
2017-10-31T18:48:21.695Z,80.20
2017-10-31T18:50:49.165Z,79.70
2017-10-31T18:53:16.578Z,79.40
2017-10-31T18:55:43.977Z,80.25
2017-10-31T18:58:11.393Z,80.41
2017-10-31T19:00:38.787Z,81.47
2017-10-31T19:03:06.230Z,81.19
2017-10-31T19:05:33.696Z,81.13
2017-10-31T19:08:01.095Z,80.85
2017-10-31T19:10:28.835Z,81.66
2017-10-31T19:12:56.280Z,81.21
2017-10-31T19:15:23.723Z,82.35
2017-10-31T19:17:51.181Z,82.39
2017-10-31T19:20:18.652Z,81.82
2017-10-31T19:22:46.092Z,81.48
2017-10-31T19:25:13.490Z,82.02
2017-10-31T19:27:41.106Z,82.38
2017-10-31T19:30:08.508Z,82.97
2017-10-31T19:32:35.900Z,83.27
2017-10-31T19:35:03.758Z,83.25
2017-10-31T19:37:31.175Z,83.20
2017-10-31T19:39:58.596Z,83.14
2017-10-31T19:42:25.986Z,83.06
2017-10-31T19:44:53.439Z,83.79
2017-10-31T19:47:20.831Z,83.65
2017-10-31T19:49:48.234Z,83.90
2017-10-31T19:52:15.711Z,83.75
2017-10-31T19:54:43.130Z,83.91
2017-10-31T19:57:10.620Z,83.98
2017-10-31T19:59:38.023Z,83.30
2017-10-31T20:02:05.431Z,83.42
2017-10-31T20:04:32.898Z,83.43
2017-10-31T20:07:00.365Z,83.94
2017-10-31T20:09:27.747Z,83.87
2017-10-31T20:11:55.144Z,84.24
2017-10-31T20:14:22.618Z,84.26
2017-10-31T20:16:50.025Z,84.72
2017-10-31T20:19:17.534Z,84.53
2017-10-31T20:21:44.930Z,85.15
2017-10-31T20:24:12.328Z,85.47
2017-10-31T20:26:39.800Z,85.36
2017-10-31T20:29:07.198Z,85.29
2017-10-31T20:31:34.712Z,85.45
2017-10-31T20:34:02.136Z,85.93
2017-10-31T20:36:29.623Z,86.32
2017-10-31T20:38:57.022Z,86.51
2017-10-31T20:41:24.495Z,86.17
2017-10-31T20:43:51.951Z,86.43
2017-10-31T20:46:19.351Z,86.52
2017-10-31T20:48:46.767Z,86.73
2017-10-31T20:51:14.163Z,86.71
2017-10-31T20:53:41.607Z,86.75
2017-10-31T20:56:08.975Z,86.79
2017-10-31T20:58:36.378Z,86.99
2017-10-31T21:01:03.778Z,86.69
2017-10-31T21:03:31.286Z,86.73
2017-10-31T21:05:58.751Z,86.32
2017-10-31T21:08:26.157Z,86.49
2017-10-31T21:10:53.551Z,86.44
2017-10-31T21:13:20.960Z,86.97
2017-10-31T21:15:48.355Z,86.90
2017-10-31T21:18:15.774Z,87.46
2017-10-31T21:20:43.173Z,88.03
2017-10-31T21:23:10.583Z,88.33
2017-10-31T21:25:38.038Z,88.17
2017-10-31T21:28:05.434Z,87.98
2017-10-31T21:30:32.832Z,87.48
2017-10-31T21:33:00.312Z,87.49
2017-10-31T21:35:27.702Z,87.47
2017-10-31T21:37:55.119Z,86.96
2017-10-31T21:40:22.511Z,87.10
2017-10-31T21:42:49.916Z,87.04
2017-10-31T21:45:17.299Z,87.83
2017-10-31T21:47:44.743Z,87.58
2017-10-31T21:50:12.200Z,87.22
2017-10-31T21:52:39.602Z,86.91
2017-10-31T21:55:07.107Z,86.76
2017-10-31T21:57:34.504Z,86.73
2017-10-31T22:00:01.898Z,86.70
2017-10-31T22:02:29.402Z,86.67
2017-10-31T22:04:56.836Z,87.88
2017-10-31T22:07:24.227Z,87.29
2017-10-31T22:09:51.647Z,87.34
2017-10-31T22:12:19.043Z,87.16
2017-10-31T22:14:46.447Z,87.06
2017-10-31T22:17:13.842Z,87.59
2017-10-31T22:19:41.238Z,87.58
2017-10-31T22:22:08.639Z,87.78
2017-10-31T22:24:36.078Z,87.67
2017-10-31T22:27:03.527Z,87.75
2017-10-31T22:29:30.990Z,87.81
2017-10-31T22:31:58.386Z,87.99
2017-10-31T22:34:25.804Z,87.88
2017-10-31T22:36:53.263Z,87.85
2017-10-31T22:39:20.663Z,87.84
2017-10-31T22:41:48.061Z,88.83
2017-10-31T22:44:15.472Z,88.85
2017-10-31T22:46:42.943Z,88.41
2017-10-31T22:49:10.452Z,88.23
2017-10-31T22:51:37.891Z,88.21
2017-10-31T22:54:05.351Z,88.19
2017-10-31T22:56:32.815Z,88.32
2017-10-31T22:59:00.202Z,88.38
2017-10-31T23:01:27.602Z,88.50
2017-10-31T23:03:55.079Z,88.72
2017-10-31T23:06:22.475Z,88.00
2017-10-31T23:08:49.867Z,88.11
2017-10-31T23:11:17.261Z,88.29
2017-10-31T23:13:44.660Z,87.90
2017-10-31T23:16:12.087Z,88.57
2017-10-31T23:18:39.534Z,88.53
2017-10-31T23:21:06.930Z,88.64
2017-10-31T23:23:34.414Z,88.59
2017-10-31T23:26:01.864Z,88.61
2017-10-31T23:28:29.338Z,88.84
2017-10-31T23:30:56.727Z,88.79
2017-10-31T23:33:24.118Z,88.33
2017-10-31T23:35:51.514Z,87.69
2017-10-31T23:38:18.917Z,87.81
2017-10-31T23:40:46.327Z,87.78
2017-10-31T23:43:13.719Z,88.07
2017-10-31T23:45:41.124Z,88.33
2017-10-31T23:48:08.531Z,88.13
2017-10-31T23:50:36.027Z,88.04
2017-10-31T23:53:03.426Z,87.72
2017-10-31T23:55:30.843Z,88.78
2017-10-31T23:57:58.239Z,88.62
